Terminal Aerodrome Forecast
Issued by NWS

Home | Current Version | Previous Version | Graphics & Text | Print | Product List | Glossary On
Versions: 1 2 3 4 5 6 7 8 9 10 11 12 13 14 15 16 17
510
FTUS43 KIWX 112339
TAFSBN
TAF
KSBN 112339Z 1200/1224 28005KT P6SM SCT035
     FM120200 23005KT P6SM FEW025 BKN250
     FM121200 25010KT P6SM BKN040
     FM121600 28015G25KT 3SM -SHSN BLSN BKN020 OVC040
      TEMPO 1216/1219 2SM -SHSN
     FM122100 30016G28KT 1SM -SHSN BLSN OVC020=

USA.gov is the U.S. government's official web portal to all federal, state and local government web resources and services.